Time;durP1;ratioP1;P1;durP2;ratioP2;P2;SDS_P1;SDS_P2;PMS_P1;PMS_P2;Temp;Humidity;BMP_temperature;BMP_pressure;BME280_temperature;BME280_humidity;BME280_pressure;Samples;Min_cycle;Max_cycle;Signal;HPM_P1;HPM_P2
2021/07/03 10:52:39;;;;;;;414.42;393.55;;;22.60;99.90;;;;;;5131873;27;20569;-71
2021/07/03 10:55:05;;;;;;;428.50;406.45;;;21.50;99.90;;;;;;5132043;27;20261;-71
2021/07/03 10:57:40;;;;;;;452.80;429.48;;;21.60;99.90;;;;;;5130831;28;20165;-71
2021/07/03 11:00:06;;;;;;;471.70;446.90;;;21.60;99.90;;;;;;5132002;27;20181;-71
2021/07/03 11:02:32;;;;;;;482.00;457.02;;;21.60;99.90;;;;;;5131761;28;20235;-71
2021/07/03 11:05:08;;;;;;;546.38;516.58;;;21.00;99.90;;;;;;5131952;27;20166;-71
2021/07/03 11:07:34;;;;;;;499.42;473.17;;;21.80;99.90;;;;;;5131779;28;20173;-71
2021/07/03 11:10:07;;;;;;;533.95;505.30;;;22.00;99.90;;;;;;5131912;28;20162;-71
2021/07/03 11:12:53;;;;;;;510.88;483.27;;;22.10;99.90;;;;;;5131866;27;20196;-71
2021/07/03 11:15:20;;;;;;;331.45;315.98;;;22.20;99.90;;;;;;5131739;27;20169;-71
2021/07/03 11:17:47;;;;;;;251.68;240.30;;;22.30;99.90;;;;;;5131438;27;20154;-71
2021/07/03 11:20:27;;;;;;;320.98;305.95;;;22.20;99.90;;;;;;5131453;27;20158;-72
2021/07/03 11:22:55;;;;;;;356.75;339.95;;;22.10;99.90;;;;;;5131546;27;20162;-71
2021/07/03 11:25:29;;;;;;;387.63;368.70;;;22.20;99.90;;;;;;5130297;28;20170;-71
2021/07/03 11:28:07;;;;;;;282.60;269.65;;;22.30;99.90;;;;;;5131309;27;20166;-69
2021/07/03 11:30:33;;;;;;;274.63;262.05;;;22.40;99.90;;;;;;5130267;28;20605;-69
2021/07/03 11:33:00;;;;;;;249.13;237.82;;;22.50;99.90;;;;;;5131243;28;20666;-69
2021/07/03 11:35:27;;;;;;;219.50;209.63;;;22.60;99.90;;;;;;5129912;28;20177;-70
2021/07/03 11:37:53;;;;;;;224.20;213.85;;;22.60;99.90;;;;;;5130975;27;20630;-69
2021/07/03 11:40:22;;;;;;;250.65;239.20;;;22.70;99.90;;;;;;5131201;27;20170;-69
2021/07/03 11:42:51;;;;;;;209.30;199.63;;;22.80;99.90;;;;;;5131046;28;20515;-69
2021/07/03 11:45:29;;;;;;;264.83;252.75;;;22.80;99.90;;;;;;5131141;28;20161;-70
2021/07/03 11:48:11;;;;;;;259.88;248.00;;;22.90;99.90;;;;;;5130810;28;20169;-69
2021/07/03 11:50:38;;;;;;;277.23;264.55;;;23.10;99.90;;;;;;5130578;28;20300;-70
2021/07/03 11:53:05;;;;;;;256.92;245.05;;;23.20;99.90;;;;;;5130831;27;20218;-70
2021/07/03 11:55:52;;;;;;;274.05;261.55;;;23.30;99.90;;;;;;5130967;27;20523;-70
2021/07/03 11:58:23;;;;;;;269.38;257.05;;;23.30;99.90;;;;;;5130608;27;20162;-69
2021/07/03 12:00:51;;;;;;;266.00;253.88;;;23.30;99.90;;;;;;5130878;28;20170;-69
2021/07/03 12:03:18;;;;;;;243.27;232.25;;;23.50;99.90;;;;;;5119459;28;20182;-69
2021/07/03 12:05:49;;;;;;;152.45;145.52;;;23.60;99.90;;;;;;5117073;28;20175;-69
2021/07/03 12:08:15;;;;;;;354.25;337.63;;;23.70;99.90;;;;;;5116931;28;20159;-69
2021/07/03 12:10:59;;;;;;;375.05;357.30;;;23.90;99.90;;;;;;5116983;28;20693;-69
2021/07/03 12:13:30;;;;;;;329.58;314.27;;;24.10;99.90;;;;;;5116805;28;20249;-69
2021/07/03 12:15:59;;;;;;;326.52;311.38;;;24.30;99.90;;;;;;5115653;28;20173;-70
2021/07/03 12:18:26;;;;;;;337.83;322.05;;;24.50;99.90;;;;;;5116903;28;20166;-70
2021/07/03 12:21:24;;;;;;;365.45;348.05;;;24.60;99.90;;;;;;5116783;28;20740;-69
2021/07/03 12:23:58;;;;;;;260.52;248.60;;;24.70;99.90;;;;;;5115577;28;20178;-70
2021/07/03 12:26:27;;;;;;;294.98;281.52;;;24.70;99.90;;;;;;5116865;28;20163;-69
2021/07/03 12:29:13;;;;;;;253.25;241.85;;;24.70;99.90;;;;;;5115600;28;20178;-69
2021/07/03 12:31:42;;;;;;;335.45;319.85;;;24.70;99.90;;;;;;5116823;28;20634;-69
2021/07/03 12:34:07;;;;;;;296.80;283.25;;;24.80;99.90;;;;;;5116485;28;20166;-69
2021/07/03 12:36:34;;;;;;;314.20;299.63;;;24.80;99.90;;;;;;5115238;28;20177;-69
2021/07/03 12:39:07;;;;;;;308.85;294.60;;;24.80;99.90;;;;;;5116410;28;20170;-69
2021/07/03 12:41:33;;;;;;;353.35;336.35;;;24.90;99.90;;;;;;5116291;28;20231;-69
2021/07/03 12:44:00;;;;;;;157.13;150.07;;;25.10;99.90;;;;;;5116318;28;20242;-69
2021/07/03 12:46:33;;;;;;;210.00;200.55;;;25.20;99.90;;;;;;5116495;28;20165;-69
2021/07/03 12:48:59;;;;;;;123.68;118.03;;;25.40;99.90;;;;;;5116220;28;20162;-69
2021/07/03 12:51:30;;;;;;;145.00;137.95;;;25.50;99.90;;;;;;5116075;28;20245;-69
2021/07/03 12:53:58;;;;;;;256.98;245.25;;;25.60;99.90;;;;;;5116060;28;20171;-69
2021/07/03 12:56:24;;;;;;;75.00;71.65;;;25.70;99.90;;;;;;5116222;28;20522;-69
2021/07/03 12:58:58;;;;;;;107.22;102.38;;;25.80;99.90;;;;;;5116056;28;20245;-70
2021/07/03 13:01:50;;;;;;;51.05;48.83;;;25.80;99.90;;;;;;5116126;28;20198;-69
2021/07/03 13:04:15;;;;;;;89.68;85.75;;;25.50;99.90;;;;;;5115559;28;20178;-69
2021/07/03 13:06:41;;;;;;;84.60;80.75;;;25.30;99.90;;;;;;5114613;28;20261;-69
2021/07/03 13:09:06;;;;;;;124.65;118.93;;;25.10;99.90;;;;;;5115764;28;20166;-69
2021/07/03 13:11:32;;;;;;;162.98;155.13;;;25.00;99.90;;;;;;5115739;28;20220;-69
2021/07/03 13:13:59;;;;;;;133.15;126.60;;;25.00;99.90;;;;;;5114644;28;20512;-69
2021/07/03 13:16:25;;;;;;;121.80;116.32;;;25.10;99.90;;;;;;5115930;28;20219;-69
2021/07/03 13:18:50;;;;;;;111.32;106.38;;;25.10;99.90;;;;;;5115812;28;20679;-69
2021/07/03 13:21:16;;;;;;;143.80;137.35;;;25.10;99.90;;;;;;5115397;28;20280;-69
2021/07/03 13:23:42;;;;;;;137.93;131.70;;;25.00;99.90;;;;;;5115627;28;20169;-69
2021/07/03 13:26:09;;;;;;;157.98;150.82;;;24.90;99.90;;;;;;5115494;28;20155;-69
2021/07/03 13:28:36;;;;;;;230.32;219.80;;;24.80;99.90;;;;;;5115557;28;20170;-69
2021/07/03 13:31:05;;;;;;;174.07;166.18;;;24.80;99.90;;;;;;5115374;28;20171;-69
2021/07/03 13:33:31;;;;;;;228.80;218.38;;;24.80;99.90;;;;;;5115372;28;20182;-69
2021/07/03 13:35:57;;;;;;;227.82;217.50;;;25.00;99.90;;;;;;5115400;28;20162;-69
2021/07/03 13:38:22;;;;;;;158.30;151.15;;;25.30;99.90;;;;;;5115161;28;20569;-69
2021/07/03 13:40:48;;;;;;;153.10;145.98;;;25.60;99.90;;;;;;5115135;28;20202;-69
2021/07/03 13:43:13;;;;;;;70.20;67.18;;;25.80;99.90;;;;;;5115317;28;20253;-69
2021/07/03 13:45:39;;;;;;;62.53;59.80;;;26.10;99.90;;;;;;5115008;28;20167;-69
2021/07/03 13:48:05;;;;;;;35.65;34.25;;;26.00;99.90;;;;;;5115092;28;20158;-69
2021/07/03 13:50:30;;;;;;;40.35;38.67;;;25.90;99.90;;;;;;5114959;28;20237;-69
2021/07/03 13:52:56;;;;;;;42.00;40.30;;;25.80;99.90;;;;;;5113701;28;20322;-69
2021/07/03 13:55:21;;;;;;;48.00;46.00;;;25.70;99.90;;;;;;5115026;28;20174;-69
2021/07/03 13:57:47;;;;;;;43.45;41.75;;;25.80;99.90;;;;;;5114746;28;20170;-68
2021/07/03 14:00:13;;;;;;;36.88;35.47;;;25.90;99.90;;;;;;5114574;28;20166;-69
2021/07/03 14:02:39;;;;;;;34.28;32.97;;;26.00;99.90;;;;;;5114748;28;20246;-69
2021/07/03 14:05:07;;;;;;;34.25;33.00;;;26.20;99.90;;;;;;5114951;28;20243;-69
2021/07/03 14:07:34;;;;;;;19.40;18.80;;;26.40;99.90;;;;;;5114639;28;20207;-68
2021/07/03 14:10:02;;;;;;;22.88;22.17;;;26.40;99.90;;;;;;5114696;27;20179;-70
2021/07/03 14:12:31;;;;;;;35.03;33.72;;;26.40;99.90;;;;;;5113315;28;20244;-70
2021/07/03 14:14:59;;;;;;;21.45;20.75;;;26.50;99.90;;;;;;5114699;28;20220;-69
2021/07/03 14:17:26;;;;;;;19.40;18.70;;;26.70;99.90;;;;;;5114774;28;20170;-70
2021/07/03 14:19:52;;;;;;;20.15;19.55;;;26.80;99.90;;;;;;5114631;28;20184;-70
2021/07/03 14:22:17;;;;;;;20.98;20.38;;;26.80;99.90;;;;;;5114271;28;20194;-69
2021/07/03 14:24:43;;;;;;;22.00;21.30;;;26.80;99.90;;;;;;5114272;28;20170;-68
2021/07/03 14:27:09;;;;;;;21.77;20.88;;;26.60;99.90;;;;;;5114365;28;20691;-68
2021/07/03 14:29:34;;;;;;;21.05;20.25;;;26.50;99.90;;;;;;5114489;28;20177;-69
2021/07/03 14:32:00;;;;;;;20.10;19.50;;;26.50;99.90;;;;;;5114376;28;20230;-69
2021/07/03 14:34:26;;;;;;;23.60;22.80;;;26.60;99.90;;;;;;5114380;28;20162;-68
2021/07/03 14:36:51;;;;;;;22.08;21.38;;;26.70;99.90;;;;;;5114268;28;20170;-68
2021/07/03 14:39:17;;;;;;;22.23;21.52;;;26.80;99.90;;;;;;5114262;28;20296;-68
2021/07/03 14:41:42;;;;;;;21.70;21.08;;;26.80;99.90;;;;;;5113077;28;20194;-68
2021/07/03 14:44:09;;;;;;;22.42;21.73;;;26.70;99.90;;;;;;5114176;28;20635;-68
2021/07/03 14:46:34;;;;;;;20.50;19.90;;;26.50;99.90;;;;;;5114105;28;20166;-68
2021/07/03 14:49:00;;;;;;;21.63;20.63;;;26.20;99.90;;;;;;5114194;28;20170;-69
2021/07/03 14:51:25;;;;;;;24.38;23.38;;;26.00;99.90;;;;;;5113935;28;20223;-69
2021/07/03 14:53:51;;;;;;;24.30;23.40;;;25.90;99.90;;;;;;5114332;28;20170;-69
2021/07/03 14:56:17;;;;;;;27.45;26.45;;;25.80;99.90;;;;;;5114309;28;20169;-69
2021/07/03 14:58:42;;;;;;;30.50;29.30;;;25.80;99.90;;;;;;5113641;28;20163;-69
2021/07/03 15:01:08;;;;;;;32.80;31.60;;;25.70;99.90;;;;;;5111868;28;20198;-69
2021/07/03 15:03:34;;;;;;;43.45;41.65;;;25.60;99.90;;;;;;5113608;28;20167;-69
2021/07/03 15:05:59;;;;;;;80.18;76.53;;;25.60;99.90;;;;;;5113828;28;20190;-68
2021/07/03 15:08:25;;;;;;;56.53;54.10;;;25.50;99.90;;;;;;5114034;28;20623;-69
2021/07/03 15:10:50;;;;;;;72.57;69.43;;;25.50;99.90;;;;;;5113932;28;20189;-68
2021/07/03 15:13:16;;;;;;;58.95;56.30;;;25.40;99.90;;;;;;5113939;28;20174;-68
2021/07/03 15:15:42;;;;;;;57.25;54.63;;;25.40;99.90;;;;;;5113865;28;20171;-69
2021/07/03 15:18:07;;;;;;;62.58;59.85;;;25.30;99.90;;;;;;5113812;28;20532;-69
2021/07/03 15:20:33;;;;;;;75.38;71.97;;;25.30;99.90;;;;;;5113740;28;20255;-68
2021/07/03 15:22:58;;;;;;;73.57;70.38;;;25.20;99.90;;;;;;5113899;28;20163;-68
2021/07/03 15:25:24;;;;;;;66.50;63.60;;;25.10;99.90;;;;;;5113893;28;20178;-68
2021/07/03 15:27:50;;;;;;;69.32;66.32;;;25.00;99.90;;;;;;5113752;28;20159;-68
2021/07/03 15:30:19;;;;;;;71.97;68.50;;;25.00;99.90;;;;;;5113797;28;20166;-68
2021/07/03 15:32:50;;;;;;;68.55;65.55;;;24.90;99.90;;;;;;5113722;28;20225;-68
2021/07/03 15:35:16;;;;;;;75.20;71.90;;;24.80;99.90;;;;;;5113692;28;20175;-68
2021/07/03 15:37:41;;;;;;;78.20;74.80;;;24.60;99.90;;;;;;5115153;28;20171;-68
2021/07/03 15:40:07;;;;;;;72.40;69.20;;;24.60;99.90;;;;;;5117515;28;20163;-68
2021/07/03 15:42:34;;;;;;;69.57;66.55;;;24.60;99.90;;;;;;5117556;28;20215;-68
2021/07/03 15:44:59;;;;;;;65.63;62.78;;;24.60;99.90;;;;;;5117500;28;20628;-70
2021/07/03 15:47:26;;;;;;;66.75;63.83;;;24.70;99.90;;;;;;5116129;28;20170;-69
2021/07/03 15:49:52;;;;;;;65.88;63.03;;;24.80;99.90;;;;;;5117338;28;20166;-69
2021/07/03 15:52:18;;;;;;;62.53;59.80;;;24.80;99.90;;;;;;5117099;28;20218;-69
2021/07/03 15:54:43;;;;;;;50.65;48.55;;;24.70;99.90;;;;;;5117437;28;20200;-69
2021/07/03 15:57:09;;;;;;;49.35;47.33;;;24.60;99.90;;;;;;5117249;28;20159;-69
2021/07/03 15:59:35;;;;;;;59.88;57.28;;;24.50;99.90;;;;;;5117078;28;20220;-69
2021/07/03 16:02:02;;;;;;;57.55;55.08;;;24.30;99.90;;;;;;5117004;28;20523;-69
2021/07/03 16:04:28;;;;;;;59.67;57.17;;;24.30;99.90;;;;;;5117071;28;20190;-69
2021/07/03 16:06:53;;;;;;;59.95;57.40;;;24.10;99.90;;;;;;5116973;28;20247;-68
2021/07/03 16:09:20;;;;;;;63.08;60.30;;;24.10;99.90;;;;;;5116870;28;20180;-68
2021/07/03 16:11:46;;;;;;;83.15;79.50;;;24.00;99.90;;;;;;5115531;28;20606;-69
2021/07/03 16:14:12;;;;;;;83.75;80.03;;;24.00;99.90;;;;;;5116541;28;20247;-69
2021/07/03 16:16:38;;;;;;;111.47;106.45;;;23.90;99.90;;;;;;5116425;28;20181;-69
2021/07/03 16:19:04;;;;;;;130.93;125.05;;;23.80;99.90;;;;;;5115674;28;20215;-69
2021/07/03 16:21:30;;;;;;;151.70;144.43;;;23.70;99.90;;;;;;5116129;28;20198;-69
2021/07/03 16:23:55;;;;;;;157.32;150.13;;;23.60;99.90;;;;;;5116446;28;20163;-68
2021/07/03 16:26:21;;;;;;;160.32;153.07;;;23.50;99.90;;;;;;5116387;28;20167;-69
2021/07/03 16:28:47;;;;;;;146.25;139.57;;;23.30;99.90;;;;;;5116331;28;20245;-69
2021/07/03 16:31:12;;;;;;;142.15;135.70;;;23.20;99.90;;;;;;5116175;28;20711;-68
2021/07/03 16:33:38;;;;;;;163.73;156.23;;;23.10;99.90;;;;;;5116214;28;20170;-69
2021/07/03 16:36:04;;;;;;;158.55;151.18;;;23.10;99.90;;;;;;5116155;28;20178;-69
2021/07/03 16:38:30;;;;;;;169.30;161.50;;;23.00;99.90;;;;;;5116149;27;20174;-69
2021/07/03 16:40:55;;;;;;;162.75;155.35;;;22.80;99.90;;;;;;5116034;28;20227;-69
2021/07/03 16:43:21;;;;;;;179.25;171.15;;;22.70;99.90;;;;;;5116024;28;20166;-68
2021/07/03 16:45:46;;;;;;;160.38;152.98;;;22.60;99.90;;;;;;5114728;28;20171;-68
2021/07/03 16:48:12;;;;;;;200.27;191.20;;;22.50;99.90;;;;;;5115798;28;20192;-68
2021/07/03 16:50:39;;;;;;;225.60;215.25;;;22.40;99.90;;;;;;5115760;28;20210;-69
